Translated METAR

81.5 °F / 27.5 °C
E at 21 MPH
83%
76.1°F / 24.5 °C
29.8" (1009 mb)
10 mile(s)
partly cloudy
2021.05.16 1420 UTC

Translated METAR

Kwajalein, Bucholz AAF, Kwajalein KMR ATOL Airport, Marshall Islands (PKWA) 08-43N 167-44E 2M
May 16, 2021 - 10:20 AM EDT / 2021.05.16 1420 UTC
Wind: from the E (080 degrees) at 21 MPH (18 KT):0
Visibility: 10 mile(s):0
Sky conditions: partly cloudy
Temperature: 81.5 F (27.5 C)
Dew Point: 76.1 F (24.5 C)
Relative Humidity: 83%
Pressure (altimeter): 29.8 in. Hg (1009 hPa)
ob: PKWA 161420Z AUTO 08018KT 10SM SCT020 28/25 A2980 RMK AO2 T02750245
cycle: 14